Flight Track Log - Related Links

Times and Time Zones

All times are in EDT time to prevent confusion due to time zone crossing. See the N54108 flight status page for this flight to view local times or setup timezone preferences in your user account.


Time Position Orientation Groundspeed Altitude Reporting Facility
EDT Latitude Longitude Course Direction KTS MPH feet Rate Location/Type
Wed 08:17:56 AM 29.7547 -98.3372 279° West 114 131 4,300  Level Houston Center
Wed 08:19:03 AM 29.7581 -98.3731 276° West 106 122 4,300 50 Level Houston Center
Wed 08:19:57 AM 29.7628 -98.4036 280° West 105 121 4,400 52 Climbing Houston Center
Wed 08:20:58 AM 29.7681 -98.4367 280° West 106 122 4,400 49 Level Houston Center
Wed 08:21:59 AM 29.7714 -98.4725 276° West 106 122 4,500 50 Climbing Houston Center
Wed 08:22:59 AM 29.7722 -98.5061 272° West 109 125 4,500  Level Houston Center
Wed 08:23:00 AM 29.6153 -98.7889 279° West  Level Estimated
Wed 08:24:00 AM 29.7778 -98.5439 280° West 109 125 4,500  Level Houston Center
Wed 08:25:01 AM 29.7806 -98.5747 276° West 100 115 5,000 472 Climbing Houston Center
Wed 08:26:07 AM 29.7814 -98.6061 272° West 89 102 5,500 425 Climbing Houston Center
Wed 08:27:08 AM 29.7861 -98.6344 281° West 87 100 5,900 365 Climbing Houston Center
Wed 08:28:02 AM 29.7881 -98.6581 275° West 83 96 6,200 348 Climbing Houston Center
Wed 08:28:17 AM 29.7881 -98.6633 270° West 82 94 6,300 197 Climbing Houston Center
Wed 08:29:03 AM 29.7908 -98.6867 278° West 87 100 6,400  Climbing Houston Center
Wed 08:29:19 AM 29.7919 -98.6939 280° West 90 104 6,300 -492 Descending Houston Center
Wed 08:30:04 AM 29.7981 -98.7219 284° West 105 121 5,900 -581 Descending Houston Center
Wed 08:30:21 AM 29.7992 -98.7269 284° West 103 119 5,700 -600 Descending Houston Center
Wed 08:31:04 AM 29.8011 -98.7553 275° West 112 129 5,300 -590 Descending Houston Center
Wed 08:31:22 AM 29.8022 -98.7647 278° West 110 127 5,100 -492 Descending Houston Center
Wed 08:32:05 AM 29.8042 -98.7911 275° West 115 132 4,800 -387 Descending Houston Center
Wed 08:32:24 AM 29.8050 -98.8017 275° West 114 131 4,700 -200 Descending Houston Center
Wed 08:33:05 AM 29.8075 -98.8269 277° West 113 130 4,600 -98 Descending Houston Center
Wed 08:33:25 AM 29.8094 -98.8378 282° West 115 132 4,600  Level Houston Center
Wed 08:34:27 AM 29.8133 -98.8753 277° West 111 128 4,600 -48 Level Houston Center
Wed 08:35:29 AM 29.8161 -98.9078 276° West 104 120 4,500 -49 Descending Houston Center
Wed 08:36:30 AM 29.8197 -98.9431 277° West 110 127 4,500  Level Houston Center
Wed 08:37:32 AM 29.8211 -98.9808 272° West 109 125 4,500 -48 Level Houston Center
Wed 08:38:34 AM 29.8228 -99.0153 273° West 108 124 4,400 -49 Descending Houston Center
Wed 08:39:35 AM 29.8236 -99.0533 271° West 110 127 4,400  Level Houston Center
Wed 08:40:37 AM 29.8275 -99.0844 278° West 114 131 4,400  Level Houston Center
Wed 08:41:39 AM 29.8286 -99.1211 272° West 115 132 4,400 -48 Level Houston Center
Wed 08:42:41 AM 29.8322 -99.1556 277° West 111 128 4,300  Descending Houston Center
Wed 08:43:42 AM 29.8347 -99.1986 274° West 114 131 4,400 49 Climbing Houston Center
Wed 08:44:44 AM 29.8367 -99.2344 274° West 114 131 4,400 48 Level Houston Center
Wed 08:45:46 AM 29.8414 -99.2703 279° West 109 125 4,500 97 Climbing Houston Center
Wed 08:46:48 AM 29.8439 -99.3036 275° West 110 127 4,600 49 Climbing Houston Center
Wed 08:47:49 AM 29.8461 -99.3381 274° West 107 123 4,600  Level Houston Center
Wed 08:48:51 AM 29.8517 -99.3731 280° West 109 125 4,600 -48 Level Houston Center
Wed 08:49:53 AM 29.8583 -99.4178 280° West 117 135 4,500 -97 Descending Houston Center
Wed 08:50:55 AM 29.8619 -99.4536 277° West 116 133 4,400 -48 Descending Houston Center
Wed 08:51:57 AM 29.8658 -99.4894 277° West 114 131 4,400 -49 Level Houston Center
Wed 08:52:58 AM 29.8697 -99.5244 277° West 113 130 4,300  Descending Houston Center
Wed 08:54:00 AM 29.8725 -99.5592 275° West 110 127 4,400 97 Climbing Houston Center
Wed 08:55:02 AM 29.8758 -99.5939 276° West 110 127 4,500 48 Climbing Houston Center
Wed 08:56:04 AM 29.8778 -99.6297 274° West 110 127 4,500 48 Level Houston Center
Wed 08:57:06 AM 29.8831 -99.6706 278° West 109 125 4,600 48 Climbing Houston Center
Wed 08:58:08 AM 29.8869 -99.7053 277° West 110 127 4,600 -49 Level Houston Center
Wed 08:59:09 AM 29.8900 -99.7411 276° West 110 127 4,500  Descending Houston Center
Wed 09:00:11 AM 29.8953 -99.7775 280° West 113 130 4,600 242 Climbing Houston Center
Wed 09:01:13 AM 29.8989 -99.8108 277° West 110 127 5,000 435 Climbing Houston Center
Wed 09:02:15 AM 29.9025 -99.8369 279° West 97 112 5,500 484 Climbing Houston Center
Wed 09:03:17 AM 29.9050 -99.8636 276° West 89 102 6,000 488 Climbing Houston Center
Wed 09:04:18 AM 29.9083 -99.8956 277° West 85 98 6,500 293 Climbing Houston Center
Wed 09:05:20 AM 29.9119 -99.9247 278° West 87 100 6,600 242 Climbing Houston Center
Wed 09:06:22 AM 29.9156 -99.9531 278° West 89 102 7,000 339 Climbing Houston Center
Wed 09:07:24 AM 29.9183 -99.9817 276° West 89 102 7,300 339 Climbing Houston Center
Wed 09:08:26 AM 29.9211 -100.0108 276° West 90 104 7,700 341 Climbing Houston Center
Wed 09:09:27 AM 29.9236 -100.0408 275° West 92 106 8,000 341 Climbing Houston Center
Wed 09:10:29 AM 29.9250 -100.0703 273° West 92 106 8,400 339 Climbing Houston Center
Wed 09:11:31 AM 29.9256 -100.1075 271° West 95 109 8,700 194 Climbing Houston Center
Wed 09:12:33 AM 29.9272 -100.1381 274° West 95 109 8,800 194 Climbing Houston Center
Wed 09:13:35 AM 29.9303 -100.1678 277° West 94 108 9,100 242 Climbing Houston Center
Wed 09:14:37 AM 29.9331 -100.1956 277° West 91 105 9,300 293 Climbing Houston Center
Wed 09:15:38 AM 29.9369 -100.2244 279° West 90 104 9,700 293 Climbing Houston Center
Wed 09:16:40 AM 29.9394 -100.2531 276° West 90 104 9,900 242 Climbing Houston Center
Wed 09:17:42 AM 29.9431 -100.2814 278° West 89 102 10,200 242 Climbing Houston Center
Wed 09:18:44 AM 29.9444 -100.3108 273° West 90 104 10,400 145 Climbing Houston Center
Wed 09:19:46 AM 29.9442 -100.3475 270° West 92 106 10,500 48 Climbing Houston Center
Wed 09:20:48 AM 29.9439 -100.3789 269° West 96 110 10,500  Level Houston Center
Wed 09:21:49 AM 29.9475 -100.4106 278° West 98 113 10,500 -49 Level Houston Center
Wed 09:22:51 AM 29.9494 -100.4425 274° West 100 115 10,400 -97 Descending Houston Center
Wed 09:23:53 AM 29.9514 -100.4750 274° West 100 115 10,300 -97 Descending Houston Center
Wed 09:24:55 AM 29.9531 -100.5078 273° West 101 116 10,200 -49 Descending Houston Center
Wed 09:25:56 AM 29.9558 -100.5406 276° West 102 117 10,200 -49 Level Houston Center
Wed 09:26:58 AM 29.9586 -100.5792 275° West 101 116 10,100 -97 Descending Houston Center
Wed 09:28:00 AM 29.9619 -100.6114 277° West 102 117 10,000 -48 Descending Houston Center
Wed 09:29:02 AM 29.9644 -100.6444 275° West 102 117 10,000 -49 Level Houston Center
Wed 09:30:03 AM 29.9644 -100.6767 270° West 102 117 9,900  Descending Houston Center
Wed 09:31:05 AM 29.9664 -100.7089 274° West 101 116 10,000  Climbing Houston Center
Wed 09:32:07 AM 29.9689 -100.7394 275° West 99 114 9,900 -48 Descending Houston Center
Wed 09:33:09 AM 29.9728 -100.7706 278° West 98 113 9,900 -146 Level Houston Center
Wed 09:34:10 AM 29.9794 -100.8108 281° West 102 117 9,600 -293 Descending Houston Center
Wed 09:35:12 AM 29.9833 -100.8467 277° West 108 124 9,300 -339 Descending Houston Center
Wed 09:36:14 AM 29.9872 -100.8831 277° West 111 128 8,900 -290 Descending Houston Center
Wed 09:37:16 AM 29.9883 -100.9189 272° West 112 129 8,700 -146 Descending Houston Center
Wed 09:38:17 AM 29.9906 -100.9536 274° West 111 128 8,600 -98 Descending Houston Center
Wed 09:39:19 AM 29.9911 -100.9881 271° West 109 125 8,500 -97 Descending Houston Center
Wed 09:40:21 AM 29.9922 -101.0208 272° West 106 122 8,400 -48 Descending Houston Center
Wed 09:41:23 AM 29.9936 -101.0603 272° West 104 120 8,400  Level Houston Center
Wed 09:42:24 AM 29.9964 -101.0908 276° West 100 115 8,400 49 Level Houston Center
Wed 09:43:26 AM 29.9981 -101.1219 274° West 98 113 8,500 48 Climbing Houston Center
Wed 09:44:28 AM 30.0003 -101.1544 275° West 99 114 8,500  Level Houston Center
Wed 09:45:30 AM 30.0022 -101.1869 274° West 101 116 8,500 -48 Level Houston Center
Wed 09:46:32 AM 30.0039 -101.2189 273° West 101 116 8,400 -49 Descending Houston Center
Wed 09:47:33 AM 30.0064 -101.2506 275° West 101 116 8,400 49 Level Houston Center
Wed 09:48:35 AM 30.0092 -101.2886 275° West 99 114 8,500 48 Climbing Houston Center
Wed 09:49:37 AM 30.0103 -101.3208 272° West 100 115 8,500 48 Level Houston Center
Wed 09:50:39 AM 30.0122 -101.3533 274° West 101 116 8,600  Climbing Houston Center
Wed 09:51:41 AM 30.0156 -101.3861 277° West 104 120 8,500 -49 Descending Houston Center
Wed 09:52:42 AM 30.0169 -101.4192 273° West 103 119 8,500  Level Houston Center
Wed 09:53:44 AM 30.0186 -101.4508 273° West 101 116 8,500  Level Houston Center
Wed 09:54:46 AM 30.0217 -101.4833 276° West 101 116 8,500  Level Houston Center
Wed 09:55:48 AM 30.0217 -101.5150 270° West 100 115 8,500  Level Houston Center
Wed 09:57:00 AM 30.0088 -101.5557 250° West  Level FlightAware Approximate
Wed 10:04:00 AM 30.0144 -101.8132 274° West  Level FlightAware Approximate

Login

Don't have an account? Register now (free) for customized features, flight alerts, and more!